Startpagina
METAR-TAF:

METAR-TAF

Vliegvelden :

Dodoma, Tanzania

breedte: 06-10S, lengte: 035-46E, hoogte: 1119 m

Actueel weer

Dit bericht is 2 uur en het 2 minuten geleden gemaakt, om 15:00 UTC
Wind 6 kt uit het westen
Temperatuur 24°C
Vochtigheid 69%
Druk 1013 hPa
Zicht 10 km of meer
Verspreide wolken op 2200 ft
Weinig wolken op 2300 ft, Cumulonimbus.
Verspreide wolken op 8000 ft

METAR: HTDO 181500Z 27006KT 9999 SCT022 FEW023CB SCT080 24/18 Q1013 NOSIG

Tijdstip: 20:02 (17:02 UTC)

Verwachting

Dit bericht is 6 uur en het 2 minuten geleden gemaakt, om 11:00 UTC
Verwachting geldig van 18 om 12 UTC tot 19 om 12 UTC
Wind 9 kt uit het westen
Zicht 10 km of meer
Verspreide wolken op 2200 ft
Weinig wolken op 2300 ft, Cumulonimbus.
Wijzigt naar
van 18 om 13 UTC tot 18 om 15 UTC
Verspreide wolken op 2100 ft
Weinig wolken op 2200 ft, Cumulonimbus.
onweer, regen

TAF: HTDO 181100Z 1812/1912 26009KT 9999 SCT022 FEW023CB BECMG 1813/1815 TSRA SCT021 FEW022CB

Waarnemingen en weersverwachtingen van meer dan 4000 vliegvelden (METAR en TAF).

De beschikbare stations zijn de gele en rode punten op de kaart.

Ga met uw muis naar het station om de naam te zien.

Klik dan om waarnemingen en weersverwachtingen te zien.

kaart wijzigen: klik op de groene knoppen met een zwart kruis om in te zoomen, op de groene knop met een streepje om uit te zoomen of op de groene pijlen voor aangrenzende kaarten.


METAR-TAF: